createdAt,value
2022-09-23T00:01:54.009Z,99246.25
2022-09-23T00:04:24.571Z,99244.53
2022-09-23T00:06:57.285Z,99244.63
2022-09-23T00:09:26.356Z,99240.03
2022-09-23T00:11:55.600Z,99243.94
2022-09-23T00:14:28.955Z,99250.84
2022-09-23T00:17:01.844Z,99247.50
2022-09-23T00:19:33.955Z,99242.53
2022-09-23T00:22:03.770Z,99239.63
2022-09-23T00:24:34.294Z,99241.41
2022-09-23T00:27:02.473Z,99245.63
2022-09-23T00:29:32.146Z,99241.81
2022-09-23T00:32:01.706Z,99254.38
2022-09-23T00:34:30.991Z,99246.03
2022-09-23T00:37:01.550Z,99247.69
2022-09-23T00:39:29.898Z,99245.72
2022-09-23T00:41:58.603Z,99248.84
2022-09-23T00:44:47.095Z,99249.47
2022-09-23T00:47:21.895Z,99247.09
2022-09-23T00:49:55.082Z,99237.31
2022-09-23T00:52:25.835Z,99247.09
2022-09-23T00:54:56.798Z,99242.13
2022-09-23T00:57:25.820Z,99253.69
2022-09-23T01:00:02.651Z,99244.00
2022-09-23T01:02:34.089Z,99246.91
2022-09-23T01:05:03.330Z,99245.50
2022-09-23T01:07:32.244Z,99248.75
2022-09-23T01:10:01.300Z,99253.53
2022-09-23T01:12:42.730Z,99247.28
2022-09-23T01:15:17.792Z,99244.72
2022-09-23T01:17:54.147Z,99249.19
2022-09-23T01:20:41.889Z,99244.28
2022-09-23T01:23:18.367Z,99242.09
2022-09-23T01:26:00.057Z,99248.66
2022-09-23T01:28:37.148Z,99239.75
2022-09-23T01:31:10.926Z,99246.88
2022-09-23T01:33:51.182Z,99250.91
2022-09-23T01:36:25.023Z,99241.63
2022-09-23T01:38:59.262Z,99237.19
2022-09-23T01:41:35.575Z,99245.22
2022-09-23T01:44:06.912Z,99247.38
2022-09-23T01:46:43.104Z,99245.50
2022-09-23T01:49:15.094Z,99245.47
2022-09-23T01:51:47.308Z,99247.28
2022-09-23T01:54:18.940Z,99252.91
2022-09-23T01:56:52.482Z,99252.16
2022-09-23T01:59:24.738Z,99251.16
2022-09-23T02:01:57.879Z,99242.22
2022-09-23T02:04:30.744Z,99254.84
2022-09-23T02:07:01.529Z,99256.25
2022-09-23T02:09:39.015Z,99253.44
2022-09-23T02:12:12.710Z,99260.16
2022-09-23T02:14:43.921Z,99248.91
2022-09-23T02:17:15.924Z,99256.81
2022-09-23T02:19:53.284Z,99250.31
2022-09-23T02:22:26.319Z,99244.63
2022-09-23T02:25:03.149Z,99246.91
2022-09-23T02:27:33.779Z,99252.19
2022-09-23T02:30:04.588Z,99249.47
2022-09-23T02:32:42.256Z,99253.50
2022-09-23T02:35:18.141Z,99252.28
2022-09-23T02:37:51.455Z,99250.09
2022-09-23T02:40:23.733Z,99247.59
2022-09-23T02:42:58.182Z,99241.84
2022-09-23T02:45:26.498Z,99244.53
2022-09-23T02:48:04.939Z,99248.25
2022-09-23T02:50:33.980Z,99246.44
2022-09-23T02:53:02.760Z,99238.03
2022-09-23T02:55:33.871Z,99234.88
2022-09-23T02:58:02.871Z,99242.06
2022-09-23T03:00:38.162Z,99234.91
2022-09-23T03:03:13.832Z,99244.94
2022-09-23T03:05:47.494Z,99235.59
2022-09-23T03:08:30.509Z,99233.16
2022-09-23T03:11:11.778Z,99248.38
2022-09-23T03:13:48.930Z,99244.78
2022-09-23T03:16:19.952Z,99246.88
2022-09-23T03:18:53.001Z,99247.09
2022-09-23T03:21:24.902Z,99253.69
2022-09-23T03:23:54.706Z,99253.16
2022-09-23T03:26:24.714Z,99250.03
2022-09-23T03:28:53.239Z,99256.44
2022-09-23T03:31:21.627Z,99260.91
2022-09-23T03:33:53.596Z,99252.41
2022-09-23T03:36:43.331Z,99249.28
2022-09-23T03:39:13.939Z,99254.28
2022-09-23T03:41:44.768Z,99244.38
2022-09-23T03:44:13.344Z,99251.22
2022-09-23T03:46:46.758Z,99244.22
2022-09-23T03:49:17.968Z,99235.22
2022-09-23T03:51:46.153Z,99242.34
2022-09-23T03:54:14.259Z,99240.41
2022-09-23T03:56:42.506Z,99233.91
2022-09-23T03:59:10.683Z,99239.16
2022-09-23T04:01:38.788Z,99231.31
2022-09-23T04:04:07.025Z,99223.44
2022-09-23T04:06:36.899Z,99236.88
2022-09-23T04:09:05.152Z,99223.69
2022-09-23T04:11:33.300Z,99216.16
2022-09-23T04:14:01.376Z,99221.03
2022-09-23T04:16:29.652Z,99219.13
2022-09-23T04:18:57.840Z,99213.47
2022-09-23T04:21:26.429Z,99210.25
2022-09-23T04:23:56.244Z,99216.19
2022-09-23T04:26:24.649Z,99222.97
2022-09-23T04:28:52.748Z,99216.91
2022-09-23T04:31:23.264Z,99215.22
2022-09-23T04:33:51.460Z,99217.34
2022-09-23T04:36:19.523Z,99205.41
2022-09-23T04:38:49.204Z,99212.94
2022-09-23T04:41:19.411Z,99212.53
2022-09-23T04:43:47.653Z,99206.97
2022-09-23T04:46:16.675Z,99202.09
2022-09-23T04:48:44.822Z,99185.19
2022-09-23T04:51:14.064Z,99182.91
2022-09-23T04:53:43.591Z,99187.44
2022-09-23T04:56:12.925Z,99185.63
2022-09-23T04:58:43.035Z,99194.56
2022-09-23T05:01:12.053Z,99190.47
2022-09-23T05:03:41.259Z,99196.25
2022-09-23T05:06:09.864Z,99202.03
2022-09-23T05:08:37.962Z,99189.16
2022-09-23T05:11:06.462Z,99197.09
2022-09-23T05:13:35.503Z,99190.41
2022-09-23T05:16:06.306Z,99191.78
2022-09-23T05:18:35.413Z,99191.75
2022-09-23T05:21:04.080Z,99191.31
2022-09-23T05:23:32.190Z,99183.22
2022-09-23T05:26:01.139Z,99192.56
2022-09-23T05:28:30.069Z,99185.59
2022-09-23T05:31:03.199Z,99189.31
2022-09-23T05:33:32.935Z,99193.16
2022-09-23T05:36:04.923Z,99185.59
2022-09-23T05:38:33.217Z,99194.25
2022-09-23T05:41:02.086Z,99201.47
2022-09-23T05:43:30.717Z,99196.38
2022-09-23T05:46:07.768Z,99203.50
2022-09-23T05:48:38.357Z,99208.19
2022-09-23T05:51:12.946Z,99209.25
2022-09-23T05:53:42.775Z,99205.53
2022-09-23T05:56:10.933Z,99216.19
2022-09-23T05:58:39.050Z,99208.69
2022-09-23T06:01:10.883Z,99214.09
2022-09-23T06:03:40.863Z,99218.69
2022-09-23T06:06:09.182Z,99203.50
2022-09-23T06:08:37.883Z,99218.19
2022-09-23T06:11:07.793Z,99211.03
2022-09-23T06:13:38.387Z,99208.75
2022-09-23T06:16:08.180Z,99207.91
2022-09-23T06:18:36.903Z,99196.03
2022-09-23T06:21:06.814Z,99198.94
2022-09-23T06:23:38.435Z,99202.06
2022-09-23T06:26:09.844Z,99196.09
2022-09-23T06:28:39.309Z,99194.09
2022-09-23T06:31:13.099Z,99192.53
2022-09-23T06:33:41.948Z,99187.34
2022-09-23T06:36:12.205Z,99186.56
2022-09-23T06:38:40.864Z,99189.53
2022-09-23T06:41:09.203Z,99196.47
2022-09-23T06:43:37.392Z,99187.19
2022-09-23T06:46:07.390Z,99213.78
2022-09-23T06:48:36.393Z,99227.94
2022-09-23T06:51:07.366Z,99216.59
2022-09-23T06:53:37.244Z,99224.88
2022-09-23T06:56:06.639Z,99230.25
2022-09-23T06:58:35.433Z,99221.81
2022-09-23T07:01:03.634Z,99205.88
2022-09-23T07:03:32.119Z,99208.44
2022-09-23T07:06:00.723Z,99209.22
2022-09-23T07:08:29.747Z,99205.50
2022-09-23T07:11:00.497Z,99207.53
2022-09-23T07:13:29.553Z,99201.25
2022-09-23T07:15:58.615Z,99207.97
2022-09-23T07:18:27.606Z,99206.13
2022-09-23T07:20:58.931Z,99205.56
2022-09-23T07:23:27.146Z,99208.94
2022-09-23T07:25:59.715Z,99212.72
2022-09-23T07:28:29.534Z,99212.50
2022-09-23T07:31:00.586Z,99211.84
2022-09-23T07:33:32.495Z,99202.09
2022-09-23T07:36:04.882Z,99208.09
2022-09-23T07:38:33.094Z,99211.22
2022-09-23T07:41:05.287Z,99202.84
2022-09-23T07:43:35.159Z,99195.84
2022-09-23T07:46:05.077Z,99214.22
2022-09-23T07:48:34.618Z,99212.63
2022-09-23T07:51:07.380Z,99205.84
2022-09-23T07:53:36.170Z,99198.72
2022-09-23T07:56:06.734Z,99203.88
2022-09-23T07:58:36.526Z,99200.09
2022-09-23T08:01:05.829Z,99203.69
2022-09-23T08:03:35.164Z,99205.78
2022-09-23T08:06:07.459Z,99199.50
2022-09-23T08:08:35.839Z,99197.22
2022-09-23T08:11:04.666Z,99194.13
2022-09-23T08:13:33.343Z,99190.94
2022-09-23T08:16:03.176Z,99187.63
2022-09-23T08:18:31.426Z,99191.94
2022-09-23T08:20:59.589Z,99187.22
2022-09-23T08:23:27.913Z,99182.28
2022-09-23T08:26:00.147Z,99176.16
2022-09-23T08:28:28.964Z,99172.84
2022-09-23T08:30:57.371Z,99178.13
2022-09-23T08:33:27.048Z,99185.31
2022-09-23T08:36:00.117Z,99193.00
2022-09-23T08:38:28.755Z,99187.72
2022-09-23T08:41:04.641Z,99185.41
2022-09-23T08:43:34.463Z,99198.75
2022-09-23T08:46:05.302Z,99178.00
2022-09-23T08:48:36.589Z,99186.44
2022-09-23T08:51:06.609Z,99180.72
2022-09-23T08:53:35.746Z,99185.78
2022-09-23T08:56:07.255Z,99191.13
2022-09-23T08:58:43.303Z,99195.69
2022-09-23T09:01:14.975Z,99183.78
2022-09-23T09:03:47.513Z,99169.75
2022-09-23T09:06:19.172Z,99181.88
2022-09-23T09:08:52.413Z,99181.44
2022-09-23T09:11:21.669Z,99172.75
2022-09-23T09:13:53.176Z,99166.28
2022-09-23T09:16:55.413Z,99155.50
2022-09-23T09:19:20.553Z,99156.41
2022-09-23T09:21:49.511Z,99161.53
2022-09-23T09:24:18.992Z,99157.81
2022-09-23T09:26:47.284Z,99170.06
2022-09-23T09:29:34.285Z,99174.69
2022-09-23T09:32:12.518Z,99174.09
2022-09-23T09:34:45.110Z,99164.94
2022-09-23T09:37:17.044Z,99158.00
2022-09-23T09:39:45.227Z,99156.19
2022-09-23T09:42:18.670Z,99152.66
2022-09-23T09:44:50.776Z,99155.13
2022-09-23T09:47:29.673Z,99148.16
2022-09-23T09:50:05.682Z,99154.16
2022-09-23T09:52:33.842Z,99155.72
2022-09-23T09:55:17.521Z,99145.38
2022-09-23T09:57:48.036Z,99154.63
2022-09-23T10:00:21.124Z,99147.31
2022-09-23T10:02:53.568Z,99148.66
2022-09-23T10:05:28.491Z,99139.78
2022-09-23T10:07:56.713Z,99147.81
2022-09-23T10:10:32.709Z,99145.88
2022-09-23T10:13:14.802Z,99144.66
2022-09-23T10:15:45.219Z,99150.13
2022-09-23T10:18:19.745Z,99138.25
2022-09-23T10:20:49.433Z,99139.34
2022-09-23T10:23:21.161Z,99133.09
2022-09-23T10:25:57.705Z,99135.38
2022-09-23T10:28:46.923Z,99130.22
2022-09-23T10:31:16.842Z,99143.84
2022-09-23T10:33:49.216Z,99133.31
2022-09-23T10:36:19.844Z,99120.25
2022-09-23T10:38:50.078Z,99121.66
2022-09-23T10:41:49.885Z,99124.28
2022-09-23T10:44:45.975Z,99121.50
2022-09-23T10:47:19.605Z,99132.25
2022-09-23T10:49:53.408Z,99123.88
2022-09-23T10:52:32.307Z,99124.44
2022-09-23T10:55:06.825Z,99126.91
2022-09-23T10:57:48.475Z,99124.72
2022-09-23T11:00:30.279Z,99113.41
2022-09-23T11:03:15.309Z,99108.06
2022-09-23T11:05:47.968Z,99097.78
2022-09-23T11:08:32.443Z,99089.13
2022-09-23T11:11:11.726Z,99080.31
2022-09-23T11:13:54.528Z,99069.38
2022-09-23T11:16:29.711Z,99071.66
2022-09-23T11:19:22.263Z,99074.09
2022-09-23T11:21:58.419Z,99072.59
2022-09-23T11:24:52.199Z,99069.75
2022-09-23T11:27:29.861Z,99084.78
2022-09-23T11:30:07.556Z,99087.91
2022-09-23T11:32:44.000Z,99079.22
2022-09-23T11:35:16.328Z,99077.03
2022-09-23T11:37:46.059Z,99080.19
2022-09-23T11:40:19.374Z,99092.81
2022-09-23T11:42:52.305Z,99082.97
2022-09-23T11:45:23.478Z,99075.00
2022-09-23T11:51:23.544Z,99058.13
2022-09-23T11:53:55.177Z,99073.72
2022-09-23T11:56:34.929Z,99086.72
2022-09-23T11:59:07.700Z,99091.44
2022-09-23T12:01:43.097Z,99098.22
2022-09-23T12:04:21.141Z,99078.25
2022-09-23T12:06:51.636Z,99090.34
2022-09-23T12:09:40.897Z,99084.88
2022-09-23T12:12:15.286Z,99072.72
2022-09-23T12:14:56.301Z,99077.41
2022-09-23T12:17:38.266Z,99087.72
2022-09-23T12:20:13.309Z,99086.50
2022-09-23T12:22:48.700Z,99087.09
2022-09-23T12:25:27.937Z,99085.41
2022-09-23T12:28:02.364Z,99081.06
2022-09-23T12:30:33.878Z,99077.75
2022-09-23T12:33:09.153Z,99069.25
2022-09-23T12:35:42.612Z,99059.50
2022-09-23T12:38:14.385Z,99056.44
2022-09-23T12:40:44.718Z,99045.00
2022-09-23T12:43:19.168Z,99049.84
2022-09-23T12:45:48.217Z,99058.47
2022-09-23T12:48:34.045Z,99049.91
2022-09-23T12:51:15.946Z,99048.03
2022-09-23T12:53:53.298Z,99033.06
2022-09-23T12:56:23.065Z,99041.69
2022-09-23T12:59:14.668Z,99050.94
2022-09-23T13:01:43.293Z,99051.34
2022-09-23T13:04:43.509Z,99048.88
2022-09-23T13:07:11.704Z,99049.47
2022-09-23T13:09:42.182Z,99055.47
2022-09-23T13:12:19.604Z,99041.44
2022-09-23T13:14:51.470Z,99055.09
2022-09-23T13:17:32.209Z,99055.50
2022-09-23T13:20:02.111Z,99045.44
2022-09-23T13:22:49.675Z,99033.41
2022-09-23T13:25:20.688Z,99049.72
2022-09-23T13:27:50.865Z,99033.03
2022-09-23T13:30:25.722Z,99037.19
2022-09-23T13:33:01.573Z,99049.69
2022-09-23T13:35:33.618Z,99038.59
2022-09-23T13:38:10.335Z,99044.59
2022-09-23T13:40:40.435Z,99039.63
2022-09-23T13:43:12.820Z,99036.94
2022-09-23T13:45:43.787Z,99030.59
2022-09-23T13:48:13.759Z,99028.94
2022-09-23T13:50:45.303Z,99031.84
2022-09-23T13:53:17.720Z,99015.81
2022-09-23T13:55:49.035Z,99015.81
2022-09-23T13:58:21.303Z,99017.66
2022-09-23T14:00:51.964Z,99010.94
2022-09-23T14:03:24.941Z,99008.44
2022-09-23T14:05:54.229Z,99010.84
2022-09-23T14:08:22.966Z,99008.59
2022-09-23T14:10:51.432Z,99022.34
2022-09-23T14:13:25.550Z,99005.31
2022-09-23T14:15:58.371Z,99007.53
2022-09-23T14:18:30.077Z,99003.63
2022-09-23T14:20:58.232Z,99006.53
2022-09-23T14:23:26.439Z,98987.41
2022-09-23T14:25:55.169Z,98990.22
2022-09-23T14:28:24.271Z,99006.06
2022-09-23T14:30:53.939Z,98993.59
2022-09-23T14:33:27.032Z,98990.38
2022-09-23T14:35:57.593Z,98987.63
2022-09-23T14:38:45.253Z,98998.97
2022-09-23T14:41:18.302Z,98985.31
2022-09-23T14:43:50.709Z,98991.09
2022-09-23T14:46:20.409Z,98985.69
2022-09-23T14:48:58.438Z,98987.31
2022-09-23T14:51:34.162Z,98979.13
2022-09-23T14:54:21.119Z,98982.00
2022-09-23T14:56:49.438Z,98986.28
2022-09-23T14:59:25.805Z,98972.13
2022-09-23T15:01:54.536Z,98979.88
2022-09-23T15:04:32.417Z,98979.66
2022-09-23T15:07:02.794Z,98983.69
2022-09-23T15:09:33.223Z,98973.44
2022-09-23T15:12:03.068Z,98990.91
2022-09-23T15:14:38.236Z,98986.91
2022-09-23T15:17:09.559Z,98985.00
2022-09-23T15:19:39.213Z,98981.09
2022-09-23T15:22:08.754Z,98981.38
2022-09-23T15:24:44.905Z,98982.38
2022-09-23T15:27:24.035Z,98970.44
2022-09-23T15:29:52.429Z,98977.78
2022-09-23T15:32:20.547Z,98972.34
2022-09-23T15:34:51.704Z,98963.50
2022-09-23T15:37:19.864Z,98965.56
2022-09-23T15:39:48.291Z,98970.28
2022-09-23T15:42:18.418Z,98966.91
2022-09-23T15:44:46.597Z,98960.38
2022-09-23T15:47:17.302Z,98958.88
2022-09-23T15:49:47.214Z,98956.28
2022-09-23T15:52:17.760Z,98970.94
2022-09-23T15:54:46.095Z,98968.22
2022-09-23T15:57:14.286Z,98956.78
2022-09-23T15:59:42.616Z,98946.13
2022-09-23T16:02:16.613Z,98944.59
2022-09-23T16:04:50.499Z,98942.66
2022-09-23T16:07:21.197Z,98952.13
2022-09-23T16:09:49.451Z,98934.13
2022-09-23T16:12:17.783Z,98939.34
2022-09-23T16:14:45.980Z,98940.81
2022-09-23T16:17:15.150Z,98943.84
2022-09-23T16:19:43.619Z,98950.22
2022-09-23T16:22:13.062Z,98953.91
2022-09-23T16:24:42.830Z,98945.88
2022-09-23T16:27:12.793Z,98952.06
2022-09-23T16:29:40.977Z,98944.47
2022-09-23T16:32:09.117Z,98940.00
2022-09-23T16:34:37.268Z,98937.56
2022-09-23T16:37:07.191Z,98929.16
2022-09-23T16:39:35.473Z,98940.44
2022-09-23T16:42:05.132Z,98937.16
2022-09-23T16:44:33.385Z,98923.00
2022-09-23T16:47:01.577Z,98935.41
2022-09-23T16:49:29.827Z,98928.78
2022-09-23T16:51:57.959Z,98929.69
2022-09-23T16:54:26.059Z,98922.59
2022-09-23T16:56:55.225Z,98920.03
2022-09-23T16:59:44.838Z,98919.22
2022-09-23T17:02:30.973Z,98916.31
2022-09-23T17:04:59.188Z,98911.72
2022-09-23T17:07:27.428Z,98914.91
2022-09-23T17:09:55.643Z,98910.84
2022-09-23T17:12:27.001Z,98913.31
2022-09-23T17:14:58.176Z,98918.41
2022-09-23T17:17:27.844Z,98911.81
2022-09-23T17:19:57.342Z,98910.88
2022-09-23T17:22:26.825Z,98908.91
2022-09-23T17:24:54.978Z,98895.50
2022-09-23T17:27:25.066Z,98888.16
2022-09-23T17:29:53.801Z,98896.13
2022-09-23T17:32:23.547Z,98894.19
2022-09-23T17:34:51.811Z,98898.84
2022-09-23T17:37:20.092Z,98884.09
2022-09-23T17:39:48.520Z,98893.03
2022-09-23T17:42:18.298Z,98878.47
2022-09-23T17:44:47.475Z,98881.31
2022-09-23T17:47:15.747Z,98866.56
2022-09-23T17:49:47.677Z,98875.00
2022-09-23T17:52:15.851Z,98875.81
2022-09-23T17:54:45.231Z,98864.66
2022-09-23T17:57:13.544Z,98866.47
2022-09-23T17:59:41.630Z,98865.56
2022-09-23T18:02:15.403Z,98854.13
2022-09-23T18:04:45.488Z,98857.25
2022-09-23T18:07:13.701Z,98861.53
2022-09-23T18:09:41.881Z,98855.38
2022-09-23T18:12:10.072Z,98864.38
2022-09-23T18:14:38.404Z,98864.47
2022-09-23T18:17:06.569Z,98858.66
2022-09-23T18:19:34.809Z,98854.75
2022-09-23T18:22:04.443Z,98845.78
2022-09-23T18:24:37.978Z,98839.94
2022-09-23T18:27:06.803Z,98838.09
2022-09-23T18:29:35.502Z,98833.44
2022-09-23T18:32:03.975Z,98830.88
2022-09-23T18:34:32.206Z,98834.44
2022-09-23T18:37:00.314Z,98829.50
2022-09-23T18:39:29.870Z,98813.59
2022-09-23T18:41:57.983Z,98822.69
2022-09-23T18:44:26.667Z,98821.38
2022-09-23T18:46:54.871Z,98816.78
2022-09-23T18:49:40.355Z,98807.16
2022-09-23T18:52:08.547Z,98809.47
2022-09-23T18:54:38.073Z,98803.13
2022-09-23T18:57:06.308Z,98799.84
2022-09-23T18:59:34.429Z,98807.00
2022-09-23T19:02:02.706Z,98811.09
2022-09-23T19:04:30.921Z,98792.53
2022-09-23T19:06:59.028Z,98803.97
2022-09-23T19:09:27.195Z,98806.78
2022-09-23T19:11:57.393Z,98799.19
2022-09-23T19:14:25.628Z,98793.06
2022-09-23T19:16:53.841Z,98791.16
2022-09-23T19:19:22.020Z,98794.34
2022-09-23T19:21:50.453Z,98796.28
2022-09-23T19:24:20.617Z,98795.59
2022-09-23T19:26:50.413Z,98785.34
2022-09-23T19:29:22.006Z,98786.66
2022-09-23T19:31:51.402Z,98774.84
2022-09-23T19:34:22.810Z,98779.41
2022-09-23T19:36:51.681Z,98772.25
2022-09-23T19:39:21.092Z,98764.22
2022-09-23T19:41:50.666Z,98763.09
2022-09-23T19:44:20.384Z,98757.63
2022-09-23T19:47:13.657Z,98763.22
2022-09-23T19:49:41.920Z,98752.00
2022-09-23T19:52:10.056Z,98735.22
2022-09-23T19:54:38.443Z,98737.81
2022-09-23T19:57:06.572Z,98736.22
2022-09-23T19:59:36.122Z,98739.06
2022-09-23T20:02:04.301Z,98730.69
2022-09-23T20:04:33.120Z,98721.28
2022-09-23T20:07:01.244Z,98718.56
2022-09-23T20:09:29.350Z,98720.38
2022-09-23T20:11:57.711Z,98712.97
2022-09-23T20:14:27.218Z,98708.16
2022-09-23T20:16:56.777Z,98708.00
2022-09-23T20:19:25.063Z,98695.28
2022-09-23T20:22:13.241Z,98698.06
2022-09-23T20:24:41.539Z,98693.88
2022-09-23T20:27:11.362Z,98686.44
2022-09-23T20:29:39.737Z,98684.34
2022-09-23T20:32:10.248Z,98677.97
2022-09-23T20:34:38.465Z,98675.75
2022-09-23T20:37:06.669Z,98673.19
2022-09-23T20:39:34.807Z,98676.41
2022-09-23T20:42:03.500Z,98676.41
2022-09-23T20:44:31.647Z,98662.22
2022-09-23T20:46:59.813Z,98673.47
2022-09-23T20:49:34.248Z,98658.56
2022-09-23T20:52:03.130Z,98650.81
2022-09-23T20:54:31.835Z,98653.25
2022-09-23T20:57:00.616Z,98655.38
2022-09-23T20:59:28.829Z,98650.31
2022-09-23T21:01:58.270Z,98639.13
2022-09-23T21:04:27.227Z,98638.41
2022-09-23T21:06:57.642Z,98625.31
2022-09-23T21:09:27.204Z,98635.75
2022-09-23T21:11:55.574Z,98629.34
2022-09-23T21:14:23.824Z,98617.34
2022-09-23T21:16:51.976Z,98620.72
2022-09-23T21:19:20.506Z,98620.28
2022-09-23T21:21:48.626Z,98622.22
2022-09-23T21:25:08.488Z,98613.78
2022-09-23T21:27:08.214Z,98606.34
2022-09-23T21:29:36.334Z,98604.03
2022-09-23T21:32:04.697Z,98576.63
2022-09-23T21:34:32.881Z,98590.19
2022-09-23T21:37:01.010Z,98596.75
2022-09-23T21:39:30.585Z,98591.44
2022-09-23T21:41:58.819Z,98586.22
2022-09-23T21:44:26.904Z,98581.00
2022-09-23T21:46:55.155Z,98567.25
2022-09-23T21:49:23.375Z,98575.19
2022-09-23T21:51:55.244Z,98568.09
2022-09-23T21:54:23.427Z,98562.81
2022-09-23T21:56:53.985Z,98556.56
2022-09-23T21:59:22.105Z,98548.91
2022-09-23T22:01:54.053Z,98556.22
2022-09-23T22:04:22.720Z,98544.53
2022-09-23T22:06:50.887Z,98544.75
2022-09-23T22:09:19.708Z,98531.28
2022-09-23T22:12:08.774Z,98542.59
2022-09-23T22:14:39.225Z,98522.97
2022-09-23T22:17:08.179Z,98521.84
2022-09-23T22:19:44.298Z,98511.59
2022-09-23T22:22:15.703Z,98524.31
2022-09-23T22:24:44.378Z,98515.03
2022-09-23T22:27:13.386Z,98494.19
2022-09-23T22:30:00.504Z,98493.31
2022-09-23T22:32:46.189Z,98501.78
2022-09-23T22:35:16.790Z,98495.78
2022-09-23T22:37:45.322Z,98484.97
2022-09-23T22:40:14.668Z,98479.63
2022-09-23T22:42:43.063Z,98477.53
2022-09-23T22:45:13.334Z,98478.41
2022-09-23T22:47:43.605Z,98473.72
2022-09-23T22:50:14.085Z,98468.81
2022-09-23T22:52:43.754Z,98467.91
2022-09-23T22:55:12.198Z,98469.06
2022-09-23T22:57:40.309Z,98461.44
2022-09-23T23:00:09.491Z,98451.75
2022-09-23T23:02:40.053Z,98455.56
2022-09-23T23:05:08.661Z,98421.28
2022-09-23T23:07:36.745Z,98450.19
2022-09-23T23:10:10.282Z,98429.63
2022-09-23T23:12:40.216Z,98424.06
2022-09-23T23:15:09.377Z,98423.69
2022-09-23T23:17:39.034Z,98423.91
2022-09-23T23:20:08.595Z,98413.63
2022-09-23T23:22:36.667Z,98405.78
2022-09-23T23:25:05.002Z,98420.50
2022-09-23T23:27:33.193Z,98404.56
2022-09-23T23:30:01.324Z,98393.63
2022-09-23T23:32:31.588Z,98402.06
2022-09-23T23:35:01.165Z,98395.34
2022-09-23T23:37:30.025Z,98386.09
2022-09-23T23:39:58.110Z,98378.53
2022-09-23T23:42:29.142Z,98373.16
2022-09-23T23:44:57.373Z,98373.59
2022-09-23T23:47:26.466Z,98362.72
2022-09-23T23:49:54.757Z,98356.72
2022-09-23T23:52:24.237Z,98360.97
2022-09-23T23:54:52.348Z,98348.31
2022-09-23T23:57:20.425Z,98341.41
2022-09-23T23:59:48.671Z,98328.94
